sensor_id;sensor_type;location;lat;lon;timestamp;temperature;humidity
14471;DHT22;7321;50.802;4.336;2023-05-15T00:00:03;12.80;99.90
14471;DHT22;7321;50.802;4.336;2023-05-15T00:02:31;12.80;99.90
14471;DHT22;7321;50.802;4.336;2023-05-15T00:04:59;12.90;99.90
14471;DHT22;7321;50.802;4.336;2023-05-15T00:07:25;12.90;99.90
14471;DHT22;7321;50.802;4.336;2023-05-15T00:09:51;13.00;99.90
14471;DHT22;7321;50.802;4.336;2023-05-15T00:12:17;12.90;99.90
14471;DHT22;7321;50.802;4.336;2023-05-15T00:14:42;12.90;99.90
14471;DHT22;7321;50.802;4.336;2023-05-15T00:17:08;12.90;99.90
14471;DHT22;7321;50.802;4.336;2023-05-15T00:19:34;12.90;99.90
14471;DHT22;7321;50.802;4.336;2023-05-15T00:22:00;12.90;99.90
14471;DHT22;7321;50.802;4.336;2023-05-15T00:24:26;12.90;99.90
14471;DHT22;7321;50.802;4.336;2023-05-15T00:26:52;12.80;99.90
14471;DHT22;7321;50.802;4.336;2023-05-15T00:29:17;12.80;99.90
14471;DHT22;7321;50.802;4.336;2023-05-15T00:31:43;12.60;99.90
14471;DHT22;7321;50.802;4.336;2023-05-15T00:34:09;12.50;99.90
14471;DHT22;7321;50.802;4.336;2023-05-15T00:36:35;12.50;99.90
14471;DHT22;7321;50.802;4.336;2023-05-15T00:39:01;12.40;99.90
14471;DHT22;7321;50.802;4.336;2023-05-15T00:41:27;12.50;99.90
14471;DHT22;7321;50.802;4.336;2023-05-15T00:43:56;12.50;99.90
14471;DHT22;7321;50.802;4.336;2023-05-15T00:46:23;12.50;99.90
14471;DHT22;7321;50.802;4.336;2023-05-15T00:48:50;12.60;99.90
14471;DHT22;7321;50.802;4.336;2023-05-15T00:51:16;12.50;99.90
14471;DHT22;7321;50.802;4.336;2023-05-15T00:53:42;12.50;99.90
14471;DHT22;7321;50.802;4.336;2023-05-15T00:56:10;12.50;99.90
14471;DHT22;7321;50.802;4.336;2023-05-15T00:58:37;12.40;99.90
14471;DHT22;7321;50.802;4.336;2023-05-15T01:01:03;12.50;99.90
14471;DHT22;7321;50.802;4.336;2023-05-15T01:03:30;12.30;99.90
14471;DHT22;7321;50.802;4.336;2023-05-15T01:05:56;12.30;99.90
14471;DHT22;7321;50.802;4.336;2023-05-15T01:11:01;12.20;99.90
14471;DHT22;7321;50.802;4.336;2023-05-15T01:13:28;12.20;99.90
14471;DHT22;7321;50.802;4.336;2023-05-15T01:15:54;12.20;99.90
14471;DHT22;7321;50.802;4.336;2023-05-15T01:18:20;12.20;99.90
14471;DHT22;7321;50.802;4.336;2023-05-15T01:27:09;12.60;99.90
14471;DHT22;7321;50.802;4.336;2023-05-15T01:29:59;12.60;99.90
14471;DHT22;7321;50.802;4.336;2023-05-15T01:32:39;12.60;99.90
14471;DHT22;7321;50.802;4.336;2023-05-15T01:37:48;12.50;99.90
14471;DHT22;7321;50.802;4.336;2023-05-15T01:40:17;12.40;99.90
14471;DHT22;7321;50.802;4.336;2023-05-15T01:42:52;12.40;99.90
14471;DHT22;7321;50.802;4.336;2023-05-15T01:45:20;12.30;99.90
14471;DHT22;7321;50.802;4.336;2023-05-15T01:47:48;12.40;99.90
14471;DHT22;7321;50.802;4.336;2023-05-15T01:50:16;12.40;99.90
14471;DHT22;7321;50.802;4.336;2023-05-15T01:52:52;12.40;99.90
14471;DHT22;7321;50.802;4.336;2023-05-15T01:55:22;12.30;99.90
14471;DHT22;7321;50.802;4.336;2023-05-15T01:57:49;12.30;99.90
14471;DHT22;7321;50.802;4.336;2023-05-15T02:00:17;12.40;99.90
14471;DHT22;7321;50.802;4.336;2023-05-15T02:02:44;12.40;99.90
14471;DHT22;7321;50.802;4.336;2023-05-15T02:05:11;12.40;99.90
14471;DHT22;7321;50.802;4.336;2023-05-15T02:07:37;12.40;99.90
14471;DHT22;7321;50.802;4.336;2023-05-15T02:10:03;12.50;99.90
14471;DHT22;7321;50.802;4.336;2023-05-15T02:12:30;12.50;99.90
14471;DHT22;7321;50.802;4.336;2023-05-15T02:14:57;12.50;99.90
14471;DHT22;7321;50.802;4.336;2023-05-15T02:17:26;12.50;99.90
14471;DHT22;7321;50.802;4.336;2023-05-15T02:19:54;12.40;99.90
14471;DHT22;7321;50.802;4.336;2023-05-15T02:22:20;12.50;99.90
14471;DHT22;7321;50.802;4.336;2023-05-15T02:24:45;12.40;99.90
14471;DHT22;7321;50.802;4.336;2023-05-15T02:27:42;12.50;99.90
14471;DHT22;7321;50.802;4.336;2023-05-15T02:33:25;12.50;99.90
14471;DHT22;7321;50.802;4.336;2023-05-15T02:36:05;12.50;99.90
14471;DHT22;7321;50.802;4.336;2023-05-15T02:38:47;12.60;99.90
14471;DHT22;7321;50.802;4.336;2023-05-15T02:41:14;12.60;99.90
14471;DHT22;7321;50.802;4.336;2023-05-15T02:43:41;12.60;99.90
14471;DHT22;7321;50.802;4.336;2023-05-15T02:46:09;12.60;99.90
14471;DHT22;7321;50.802;4.336;2023-05-15T02:48:40;12.70;99.90
14471;DHT22;7321;50.802;4.336;2023-05-15T02:51:06;12.80;99.90
14471;DHT22;7321;50.802;4.336;2023-05-15T02:53:37;12.80;99.90
14471;DHT22;7321;50.802;4.336;2023-05-15T02:56:03;12.60;99.90
14471;DHT22;7321;50.802;4.336;2023-05-15T02:58:29;12.50;99.90
14471;DHT22;7321;50.802;4.336;2023-05-15T03:00:55;12.50;99.90
14471;DHT22;7321;50.802;4.336;2023-05-15T03:03:21;12.40;99.90
14471;DHT22;7321;50.802;4.336;2023-05-15T03:05:47;12.30;99.90
14471;DHT22;7321;50.802;4.336;2023-05-15T03:08:13;12.30;99.90
14471;DHT22;7321;50.802;4.336;2023-05-15T03:10:39;12.20;99.90
14471;DHT22;7321;50.802;4.336;2023-05-15T03:13:05;12.30;99.90
14471;DHT22;7321;50.802;4.336;2023-05-15T03:15:31;12.30;99.90
14471;DHT22;7321;50.802;4.336;2023-05-15T03:17:56;12.40;99.90
14471;DHT22;7321;50.802;4.336;2023-05-15T03:20:22;12.50;99.90
14471;DHT22;7321;50.802;4.336;2023-05-15T03:22:48;12.40;99.90
14471;DHT22;7321;50.802;4.336;2023-05-15T03:25:15;12.30;99.90
14471;DHT22;7321;50.802;4.336;2023-05-15T03:27:40;12.30;99.90
14471;DHT22;7321;50.802;4.336;2023-05-15T03:30:07;12.30;99.90
14471;DHT22;7321;50.802;4.336;2023-05-15T03:32:32;12.10;99.90
14471;DHT22;7321;50.802;4.336;2023-05-15T03:34:58;12.10;99.90
14471;DHT22;7321;50.802;4.336;2023-05-15T03:37:24;12.20;99.90
14471;DHT22;7321;50.802;4.336;2023-05-15T03:39:50;12.20;99.90
14471;DHT22;7321;50.802;4.336;2023-05-15T03:42:16;12.20;99.90
14471;DHT22;7321;50.802;4.336;2023-05-15T03:44:48;12.20;99.90
14471;DHT22;7321;50.802;4.336;2023-05-15T03:47:14;12.10;99.90
14471;DHT22;7321;50.802;4.336;2023-05-15T03:49:40;12.10;99.90
14471;DHT22;7321;50.802;4.336;2023-05-15T03:52:07;12.10;99.90
14471;DHT22;7321;50.802;4.336;2023-05-15T03:54:33;12.00;99.90
14471;DHT22;7321;50.802;4.336;2023-05-15T03:56:59;12.10;99.90
14471;DHT22;7321;50.802;4.336;2023-05-15T03:59:25;12.20;99.90
14471;DHT22;7321;50.802;4.336;2023-05-15T04:01:51;12.20;99.90
14471;DHT22;7321;50.802;4.336;2023-05-15T04:04:16;12.20;99.90
14471;DHT22;7321;50.802;4.336;2023-05-15T04:06:42;12.20;99.90
14471;DHT22;7321;50.802;4.336;2023-05-15T04:09:08;12.20;99.90
14471;DHT22;7321;50.802;4.336;2023-05-15T04:11:34;12.20;99.90
14471;DHT22;7321;50.802;4.336;2023-05-15T04:14:00;12.10;99.90
14471;DHT22;7321;50.802;4.336;2023-05-15T04:16:26;12.00;99.90
14471;DHT22;7321;50.802;4.336;2023-05-15T04:18:51;12.10;99.90
14471;DHT22;7321;50.802;4.336;2023-05-15T04:21:17;12.00;99.90
14471;DHT22;7321;50.802;4.336;2023-05-15T04:23:43;11.90;99.90
14471;DHT22;7321;50.802;4.336;2023-05-15T04:26:09;12.10;99.90
14471;DHT22;7321;50.802;4.336;2023-05-15T04:28:35;12.20;99.90
14471;DHT22;7321;50.802;4.336;2023-05-15T04:31:00;12.10;99.90
14471;DHT22;7321;50.802;4.336;2023-05-15T04:33:26;12.10;99.90
14471;DHT22;7321;50.802;4.336;2023-05-15T04:35:52;12.10;99.90
14471;DHT22;7321;50.802;4.336;2023-05-15T04:38:18;12.20;99.90
14471;DHT22;7321;50.802;4.336;2023-05-15T04:40:44;12.20;99.90
14471;DHT22;7321;50.802;4.336;2023-05-15T04:43:10;12.20;99.90
14471;DHT22;7321;50.802;4.336;2023-05-15T04:45:36;12.20;99.90
14471;DHT22;7321;50.802;4.336;2023-05-15T04:48:02;12.20;99.90
14471;DHT22;7321;50.802;4.336;2023-05-15T04:50:28;12.20;99.90
14471;DHT22;7321;50.802;4.336;2023-05-15T04:52:54;12.20;99.90
14471;DHT22;7321;50.802;4.336;2023-05-15T04:55:20;12.30;99.90
14471;DHT22;7321;50.802;4.336;2023-05-15T04:57:46;12.30;99.90
14471;DHT22;7321;50.802;4.336;2023-05-15T05:00:13;12.30;99.90
14471;DHT22;7321;50.802;4.336;2023-05-15T05:02:39;12.20;99.90
14471;DHT22;7321;50.802;4.336;2023-05-15T05:05:06;12.20;99.90
14471;DHT22;7321;50.802;4.336;2023-05-15T05:07:33;12.10;99.90
14471;DHT22;7321;50.802;4.336;2023-05-15T05:09:59;12.10;99.90
14471;DHT22;7321;50.802;4.336;2023-05-15T05:12:25;12.00;99.90
14471;DHT22;7321;50.802;4.336;2023-05-15T05:14:51;12.10;99.90
14471;DHT22;7321;50.802;4.336;2023-05-15T05:17:17;12.20;99.90
14471;DHT22;7321;50.802;4.336;2023-05-15T05:19:43;12.10;99.90
14471;DHT22;7321;50.802;4.336;2023-05-15T05:22:10;12.20;99.90
14471;DHT22;7321;50.802;4.336;2023-05-15T05:24:36;12.00;99.90
14471;DHT22;7321;50.802;4.336;2023-05-15T05:27:02;12.00;99.90
14471;DHT22;7321;50.802;4.336;2023-05-15T05:29:29;11.80;99.90
14471;DHT22;7321;50.802;4.336;2023-05-15T05:31:55;11.80;99.90
14471;DHT22;7321;50.802;4.336;2023-05-15T05:34:21;11.70;99.90
14471;DHT22;7321;50.802;4.336;2023-05-15T05:36:48;11.80;99.90
14471;DHT22;7321;50.802;4.336;2023-05-15T05:39:14;12.00;99.90
14471;DHT22;7321;50.802;4.336;2023-05-15T05:41:41;12.20;99.90
14471;DHT22;7321;50.802;4.336;2023-05-15T05:44:07;12.30;99.90
14471;DHT22;7321;50.802;4.336;2023-05-15T05:46:33;12.30;99.90
14471;DHT22;7321;50.802;4.336;2023-05-15T05:48:59;12.30;99.90
14471;DHT22;7321;50.802;4.336;2023-05-15T05:51:25;12.20;99.90
14471;DHT22;7321;50.802;4.336;2023-05-15T05:53:51;12.20;99.90
14471;DHT22;7321;50.802;4.336;2023-05-15T05:56:16;12.10;99.90
14471;DHT22;7321;50.802;4.336;2023-05-15T05:58:42;12.20;99.90
14471;DHT22;7321;50.802;4.336;2023-05-15T06:01:08;12.20;99.90
14471;DHT22;7321;50.802;4.336;2023-05-15T06:03:34;12.20;99.90
14471;DHT22;7321;50.802;4.336;2023-05-15T06:06:00;12.20;99.90
14471;DHT22;7321;50.802;4.336;2023-05-15T06:08:28;12.10;99.90
14471;DHT22;7321;50.802;4.336;2023-05-15T06:10:54;12.10;99.90
14471;DHT22;7321;50.802;4.336;2023-05-15T06:13:20;12.20;99.90
14471;DHT22;7321;50.802;4.336;2023-05-15T06:15:46;12.20;99.90
14471;DHT22;7321;50.802;4.336;2023-05-15T06:18:12;12.10;99.90
14471;DHT22;7321;50.802;4.336;2023-05-15T06:20:38;12.20;99.90
14471;DHT22;7321;50.802;4.336;2023-05-15T06:23:04;12.30;99.90
14471;DHT22;7321;50.802;4.336;2023-05-15T06:25:30;12.50;99.90
14471;DHT22;7321;50.802;4.336;2023-05-15T06:27:57;12.20;99.90
14471;DHT22;7321;50.802;4.336;2023-05-15T06:30:23;12.20;99.90
14471;DHT22;7321;50.802;4.336;2023-05-15T06:32:48;12.20;99.90
14471;DHT22;7321;50.802;4.336;2023-05-15T06:35:14;12.30;99.90
14471;DHT22;7321;50.802;4.336;2023-05-15T06:37:40;12.30;99.90
14471;DHT22;7321;50.802;4.336;2023-05-15T06:40:06;12.40;99.90
14471;DHT22;7321;50.802;4.336;2023-05-15T06:42:32;12.70;99.90
14471;DHT22;7321;50.802;4.336;2023-05-15T06:44:58;12.70;99.90
14471;DHT22;7321;50.802;4.336;2023-05-15T06:47:24;12.80;99.90
14471;DHT22;7321;50.802;4.336;2023-05-15T06:49:50;12.70;99.90
14471;DHT22;7321;50.802;4.336;2023-05-15T06:52:16;12.80;99.90
14471;DHT22;7321;50.802;4.336;2023-05-15T06:54:42;12.80;99.90
14471;DHT22;7321;50.802;4.336;2023-05-15T06:57:07;12.70;99.90
14471;DHT22;7321;50.802;4.336;2023-05-15T06:59:33;12.50;99.90
14471;DHT22;7321;50.802;4.336;2023-05-15T07:02:03;12.60;99.90
14471;DHT22;7321;50.802;4.336;2023-05-15T07:04:29;12.70;99.90
14471;DHT22;7321;50.802;4.336;2023-05-15T07:06:56;12.70;99.90
14471;DHT22;7321;50.802;4.336;2023-05-15T07:09:22;12.60;99.90
14471;DHT22;7321;50.802;4.336;2023-05-15T07:11:48;12.60;99.90
14471;DHT22;7321;50.802;4.336;2023-05-15T07:14:14;12.70;99.90
14471;DHT22;7321;50.802;4.336;2023-05-15T07:16:40;12.70;99.90
14471;DHT22;7321;50.802;4.336;2023-05-15T07:19:07;12.90;99.90
14471;DHT22;7321;50.802;4.336;2023-05-15T07:21:33;13.00;99.90
14471;DHT22;7321;50.802;4.336;2023-05-15T07:24:00;13.00;99.90
14471;DHT22;7321;50.802;4.336;2023-05-15T07:26:26;13.00;99.90
14471;DHT22;7321;50.802;4.336;2023-05-15T07:28:51;13.10;99.90
14471;DHT22;7321;50.802;4.336;2023-05-15T07:31:17;13.40;99.90
14471;DHT22;7321;50.802;4.336;2023-05-15T07:33:43;13.60;99.90
14471;DHT22;7321;50.802;4.336;2023-05-15T07:36:09;13.80;99.90
14471;DHT22;7321;50.802;4.336;2023-05-15T07:38:35;13.80;99.90
14471;DHT22;7321;50.802;4.336;2023-05-15T07:41:01;14.00;99.90
14471;DHT22;7321;50.802;4.336;2023-05-15T07:43:26;14.20;99.90
14471;DHT22;7321;50.802;4.336;2023-05-15T07:45:52;14.40;99.90
14471;DHT22;7321;50.802;4.336;2023-05-15T07:48:19;14.60;99.90
14471;DHT22;7321;50.802;4.336;2023-05-15T07:50:46;14.80;99.90
14471;DHT22;7321;50.802;4.336;2023-05-15T07:53:15;14.90;99.90
14471;DHT22;7321;50.802;4.336;2023-05-15T07:55:44;15.00;99.90
14471;DHT22;7321;50.802;4.336;2023-05-15T07:58:10;15.10;99.90
14471;DHT22;7321;50.802;4.336;2023-05-15T08:00:36;15.20;99.90
14471;DHT22;7321;50.802;4.336;2023-05-15T08:03:03;15.40;99.90
14471;DHT22;7321;50.802;4.336;2023-05-15T08:05:29;15.40;99.90
14471;DHT22;7321;50.802;4.336;2023-05-15T08:07:59;15.30;99.90
14471;DHT22;7321;50.802;4.336;2023-05-15T08:10:25;14.90;99.90
14471;DHT22;7321;50.802;4.336;2023-05-15T08:12:51;15.00;99.90
14471;DHT22;7321;50.802;4.336;2023-05-15T08:15:17;15.00;99.90
14471;DHT22;7321;50.802;4.336;2023-05-15T08:17:43;15.00;99.90
14471;DHT22;7321;50.802;4.336;2023-05-15T08:20:09;15.10;99.90
14471;DHT22;7321;50.802;4.336;2023-05-15T08:22:35;15.00;99.90
14471;DHT22;7321;50.802;4.336;2023-05-15T08:25:01;14.90;99.90
14471;DHT22;7321;50.802;4.336;2023-05-15T08:27:28;14.80;99.90
14471;DHT22;7321;50.802;4.336;2023-05-15T08:29:54;14.90;99.90
14471;DHT22;7321;50.802;4.336;2023-05-15T08:32:20;15.00;99.90
14471;DHT22;7321;50.802;4.336;2023-05-15T08:34:45;15.10;99.90
14471;DHT22;7321;50.802;4.336;2023-05-15T08:37:11;15.40;99.90
14471;DHT22;7321;50.802;4.336;2023-05-15T08:39:37;15.60;99.90
14471;DHT22;7321;50.802;4.336;2023-05-15T08:42:32;15.60;99.90
14471;DHT22;7321;50.802;4.336;2023-05-15T08:45:00;15.60;99.90
14471;DHT22;7321;50.802;4.336;2023-05-15T08:47:31;15.50;99.90
14471;DHT22;7321;50.802;4.336;2023-05-15T08:52:33;15.30;99.90
14471;DHT22;7321;50.802;4.336;2023-05-15T08:54:59;15.20;99.90
14471;DHT22;7321;50.802;4.336;2023-05-15T08:57:26;15.30;99.90
14471;DHT22;7321;50.802;4.336;2023-05-15T08:59:53;15.40;99.90
14471;DHT22;7321;50.802;4.336;2023-05-15T09:02:20;15.50;99.90
14471;DHT22;7321;50.802;4.336;2023-05-15T09:04:46;15.40;99.90
14471;DHT22;7321;50.802;4.336;2023-05-15T09:07:14;15.60;99.90
14471;DHT22;7321;50.802;4.336;2023-05-15T09:09:41;15.90;99.90
14471;DHT22;7321;50.802;4.336;2023-05-15T09:12:14;16.10;99.90
14471;DHT22;7321;50.802;4.336;2023-05-15T09:14:41;16.30;99.90
14471;DHT22;7321;50.802;4.336;2023-05-15T09:17:09;16.30;99.90
14471;DHT22;7321;50.802;4.336;2023-05-15T09:19:37;16.40;99.90
14471;DHT22;7321;50.802;4.336;2023-05-15T09:22:19;16.50;99.90
14471;DHT22;7321;50.802;4.336;2023-05-15T09:24:50;16.60;99.90
14471;DHT22;7321;50.802;4.336;2023-05-15T09:27:18;16.60;99.90
14471;DHT22;7321;50.802;4.336;2023-05-15T09:29:45;16.40;99.90
14471;DHT22;7321;50.802;4.336;2023-05-15T09:32:13;16.30;99.90
14471;DHT22;7321;50.802;4.336;2023-05-15T09:34:41;16.40;99.90
14471;DHT22;7321;50.802;4.336;2023-05-15T09:37:09;16.40;99.90
14471;DHT22;7321;50.802;4.336;2023-05-15T09:39:42;16.50;99.90
14471;DHT22;7321;50.802;4.336;2023-05-15T09:42:10;16.70;99.90
14471;DHT22;7321;50.802;4.336;2023-05-15T09:44:43;16.80;99.90
14471;DHT22;7321;50.802;4.336;2023-05-15T09:47:10;17.10;99.90
14471;DHT22;7321;50.802;4.336;2023-05-15T09:49:36;17.30;99.90
14471;DHT22;7321;50.802;4.336;2023-05-15T09:52:02;17.40;99.90
14471;DHT22;7321;50.802;4.336;2023-05-15T09:54:31;17.50;99.90
14471;DHT22;7321;50.802;4.336;2023-05-15T09:57:07;17.50;99.90
14471;DHT22;7321;50.802;4.336;2023-05-15T09:59:33;17.60;99.90
14471;DHT22;7321;50.802;4.336;2023-05-15T10:01:59;17.80;99.90
14471;DHT22;7321;50.802;4.336;2023-05-15T10:04:25;17.80;99.90
14471;DHT22;7321;50.802;4.336;2023-05-15T10:06:51;17.60;99.90
14471;DHT22;7321;50.802;4.336;2023-05-15T10:09:18;17.50;99.90
14471;DHT22;7321;50.802;4.336;2023-05-15T10:11:49;17.10;99.90
14471;DHT22;7321;50.802;4.336;2023-05-15T10:14:16;17.00;99.90
14471;DHT22;7321;50.802;4.336;2023-05-15T10:16:42;17.10;99.90
14471;DHT22;7321;50.802;4.336;2023-05-15T10:19:10;17.10;99.90
14471;DHT22;7321;50.802;4.336;2023-05-15T10:21:38;17.30;99.90
14471;DHT22;7321;50.802;4.336;2023-05-15T10:24:05;17.20;99.90
14471;DHT22;7321;50.802;4.336;2023-05-15T10:26:38;17.10;99.90
14471;DHT22;7321;50.802;4.336;2023-05-15T10:29:07;17.00;99.90
14471;DHT22;7321;50.802;4.336;2023-05-15T10:31:34;17.20;99.90
14471;DHT22;7321;50.802;4.336;2023-05-15T10:34:02;17.10;99.90
14471;DHT22;7321;50.802;4.336;2023-05-15T10:36:29;17.00;99.90
14471;DHT22;7321;50.802;4.336;2023-05-15T10:39:00;17.10;99.90
14471;DHT22;7321;50.802;4.336;2023-05-15T10:41:28;17.10;99.90
14471;DHT22;7321;50.802;4.336;2023-05-15T10:43:57;16.80;99.90
14471;DHT22;7321;50.802;4.336;2023-05-15T10:46:24;16.70;99.90
14471;DHT22;7321;50.802;4.336;2023-05-15T10:48:50;16.40;99.90
14471;DHT22;7321;50.802;4.336;2023-05-15T10:51:28;16.40;99.90
14471;DHT22;7321;50.802;4.336;2023-05-15T10:53:55;16.60;99.90
14471;DHT22;7321;50.802;4.336;2023-05-15T10:56:31;16.80;99.90
14471;DHT22;7321;50.802;4.336;2023-05-15T10:59:07;17.00;99.90
14471;DHT22;7321;50.802;4.336;2023-05-15T11:01:34;17.10;99.90
14471;DHT22;7321;50.802;4.336;2023-05-15T11:06:32;17.20;99.90
14471;DHT22;7321;50.802;4.336;2023-05-15T11:11:57;17.50;99.90
14471;DHT22;7321;50.802;4.336;2023-05-15T11:14:27;17.70;99.90
14471;DHT22;7321;50.802;4.336;2023-05-15T11:19:23;17.80;99.90
14471;DHT22;7321;50.802;4.336;2023-05-15T11:22:00;17.80;99.90
14471;DHT22;7321;50.802;4.336;2023-05-15T11:24:31;18.00;99.90
14471;DHT22;7321;50.802;4.336;2023-05-15T11:27:01;18.00;99.90
14471;DHT22;7321;50.802;4.336;2023-05-15T11:29:27;17.80;99.90
14471;DHT22;7321;50.802;4.336;2023-05-15T11:31:53;17.80;99.90
14471;DHT22;7321;50.802;4.336;2023-05-15T11:34:32;17.60;99.90
14471;DHT22;7321;50.802;4.336;2023-05-15T11:36:59;17.40;99.90
14471;DHT22;7321;50.802;4.336;2023-05-15T11:39:26;17.00;99.90
14471;DHT22;7321;50.802;4.336;2023-05-15T11:41:53;17.00;99.90
14471;DHT22;7321;50.802;4.336;2023-05-15T11:44:21;17.00;99.90
14471;DHT22;7321;50.802;4.336;2023-05-15T11:46:48;16.70;99.90
14471;DHT22;7321;50.802;4.336;2023-05-15T11:49:18;16.30;99.90
14471;DHT22;7321;50.802;4.336;2023-05-15T11:51:46;16.10;99.90
14471;DHT22;7321;50.802;4.336;2023-05-15T11:54:12;16.00;99.90
14471;DHT22;7321;50.802;4.336;2023-05-15T11:56:43;16.20;99.90
14471;DHT22;7321;50.802;4.336;2023-05-15T11:59:12;16.20;99.90
14471;DHT22;7321;50.802;4.336;2023-05-15T12:01:43;16.40;99.90
14471;DHT22;7321;50.802;4.336;2023-05-15T12:04:16;16.30;99.90
14471;DHT22;7321;50.802;4.336;2023-05-15T12:06:43;15.80;99.90
14471;DHT22;7321;50.802;4.336;2023-05-15T12:09:15;15.60;99.90
14471;DHT22;7321;50.802;4.336;2023-05-15T12:11:52;15.60;99.90
14471;DHT22;7321;50.802;4.336;2023-05-15T12:14:26;15.70;99.90
14471;DHT22;7321;50.802;4.336;2023-05-15T12:16:52;15.70;99.90
14471;DHT22;7321;50.802;4.336;2023-05-15T12:19:18;15.90;99.90
14471;DHT22;7321;50.802;4.336;2023-05-15T12:21:47;16.00;99.90
14471;DHT22;7321;50.802;4.336;2023-05-15T12:24:12;16.30;99.90
14471;DHT22;7321;50.802;4.336;2023-05-15T12:26:39;16.30;99.90
14471;DHT22;7321;50.802;4.336;2023-05-15T12:29:05;16.20;99.90
14471;DHT22;7321;50.802;4.336;2023-05-15T12:31:33;16.10;99.90
14471;DHT22;7321;50.802;4.336;2023-05-15T12:34:00;16.10;99.90
14471;DHT22;7321;50.802;4.336;2023-05-15T12:36:26;16.10;99.90
14471;DHT22;7321;50.802;4.336;2023-05-15T12:38:54;15.70;99.90
14471;DHT22;7321;50.802;4.336;2023-05-15T12:41:20;15.50;99.90
14471;DHT22;7321;50.802;4.336;2023-05-15T12:43:47;15.40;99.90
14471;DHT22;7321;50.802;4.336;2023-05-15T12:46:13;15.30;99.90
14471;DHT22;7321;50.802;4.336;2023-05-15T12:48:40;15.20;99.90
14471;DHT22;7321;50.802;4.336;2023-05-15T12:51:07;15.20;99.90
14471;DHT22;7321;50.802;4.336;2023-05-15T12:53:33;15.20;99.90
14471;DHT22;7321;50.802;4.336;2023-05-15T12:55:59;15.20;99.90
14471;DHT22;7321;50.802;4.336;2023-05-15T12:58:25;15.30;99.90
14471;DHT22;7321;50.802;4.336;2023-05-15T13:00:51;15.20;99.90
14471;DHT22;7321;50.802;4.336;2023-05-15T13:03:19;15.00;99.90
14471;DHT22;7321;50.802;4.336;2023-05-15T13:05:46;15.10;99.90
14471;DHT22;7321;50.802;4.336;2023-05-15T13:08:16;14.90;99.90
14471;DHT22;7321;50.802;4.336;2023-05-15T13:10:43;14.70;99.90
14471;DHT22;7321;50.802;4.336;2023-05-15T13:13:09;14.60;99.90
14471;DHT22;7321;50.802;4.336;2023-05-15T13:15:40;14.50;99.90
14471;DHT22;7321;50.802;4.336;2023-05-15T13:18:08;14.40;99.90
14471;DHT22;7321;50.802;4.336;2023-05-15T13:20:39;14.10;99.90
14471;DHT22;7321;50.802;4.336;2023-05-15T13:23:06;14.00;99.90
14471;DHT22;7321;50.802;4.336;2023-05-15T13:25:32;13.70;99.90
14471;DHT22;7321;50.802;4.336;2023-05-15T13:28:01;13.60;99.90
14471;DHT22;7321;50.802;4.336;2023-05-15T13:30:28;13.70;99.90
14471;DHT22;7321;50.802;4.336;2023-05-15T13:32:54;13.50;99.90
14471;DHT22;7321;50.802;4.336;2023-05-15T13:35:20;13.40;99.90
14471;DHT22;7321;50.802;4.336;2023-05-15T13:37:46;13.30;99.90
14471;DHT22;7321;50.802;4.336;2023-05-15T13:40:12;13.20;99.90
14471;DHT22;7321;50.802;4.336;2023-05-15T13:42:40;13.20;99.90
14471;DHT22;7321;50.802;4.336;2023-05-15T13:45:07;13.30;99.90
14471;DHT22;7321;50.802;4.336;2023-05-15T13:47:33;13.30;99.90
14471;DHT22;7321;50.802;4.336;2023-05-15T13:50:00;13.50;99.90
14471;DHT22;7321;50.802;4.336;2023-05-15T13:52:26;13.70;99.90
14471;DHT22;7321;50.802;4.336;2023-05-15T13:54:55;13.60;99.90
14471;DHT22;7321;50.802;4.336;2023-05-15T13:57:21;13.80;99.90
14471;DHT22;7321;50.802;4.336;2023-05-15T13:59:47;13.80;99.90
14471;DHT22;7321;50.802;4.336;2023-05-15T14:02:13;13.90;99.90
14471;DHT22;7321;50.802;4.336;2023-05-15T14:04:39;13.80;99.90
14471;DHT22;7321;50.802;4.336;2023-05-15T14:07:05;13.80;99.90
14471;DHT22;7321;50.802;4.336;2023-05-15T14:09:31;13.70;99.90
14471;DHT22;7321;50.802;4.336;2023-05-15T14:11:57;13.80;99.90
14471;DHT22;7321;50.802;4.336;2023-05-15T14:14:22;13.50;99.90
14471;DHT22;7321;50.802;4.336;2023-05-15T14:16:48;13.50;99.90
14471;DHT22;7321;50.802;4.336;2023-05-15T14:19:14;13.40;99.90
14471;DHT22;7321;50.802;4.336;2023-05-15T14:21:40;13.30;99.90
14471;DHT22;7321;50.802;4.336;2023-05-15T14:24:06;13.00;99.90
14471;DHT22;7321;50.802;4.336;2023-05-15T14:26:32;13.10;99.90
14471;DHT22;7321;50.802;4.336;2023-05-15T14:28:58;13.30;99.90
14471;DHT22;7321;50.802;4.336;2023-05-15T14:31:24;13.40;99.90
14471;DHT22;7321;50.802;4.336;2023-05-15T14:33:51;13.40;99.90
14471;DHT22;7321;50.802;4.336;2023-05-15T14:36:17;13.20;99.90
14471;DHT22;7321;50.802;4.336;2023-05-15T14:38:43;13.30;99.90
14471;DHT22;7321;50.802;4.336;2023-05-15T14:41:10;13.50;99.90
14471;DHT22;7321;50.802;4.336;2023-05-15T14:43:36;13.30;99.90
14471;DHT22;7321;50.802;4.336;2023-05-15T14:46:04;13.30;99.90
14471;DHT22;7321;50.802;4.336;2023-05-15T14:48:30;13.40;99.90
14471;DHT22;7321;50.802;4.336;2023-05-15T14:50:59;13.20;99.90
14471;DHT22;7321;50.802;4.336;2023-05-15T14:53:25;13.10;99.90
14471;DHT22;7321;50.802;4.336;2023-05-15T14:55:53;13.00;99.90
14471;DHT22;7321;50.802;4.336;2023-05-15T14:58:19;13.00;99.90
14471;DHT22;7321;50.802;4.336;2023-05-15T15:00:44;13.00;99.90
14471;DHT22;7321;50.802;4.336;2023-05-15T15:03:12;13.30;99.90
14471;DHT22;7321;50.802;4.336;2023-05-15T15:05:38;13.40;99.90
14471;DHT22;7321;50.802;4.336;2023-05-15T15:08:06;13.30;99.90
14471;DHT22;7321;50.802;4.336;2023-05-15T15:10:34;13.40;99.90
14471;DHT22;7321;50.802;4.336;2023-05-15T15:13:00;13.50;99.90
14471;DHT22;7321;50.802;4.336;2023-05-15T15:15:27;13.70;99.90
14471;DHT22;7321;50.802;4.336;2023-05-15T15:17:54;13.70;99.90
14471;DHT22;7321;50.802;4.336;2023-05-15T15:20:22;13.70;99.90
14471;DHT22;7321;50.802;4.336;2023-05-15T15:22:49;13.70;99.90
14471;DHT22;7321;50.802;4.336;2023-05-15T15:25:15;13.60;99.90
14471;DHT22;7321;50.802;4.336;2023-05-15T15:27:41;13.60;99.90
14471;DHT22;7321;50.802;4.336;2023-05-15T15:30:08;13.70;99.90
14471;DHT22;7321;50.802;4.336;2023-05-15T15:32:35;13.80;99.90
14471;DHT22;7321;50.802;4.336;2023-05-15T15:35:01;13.70;99.90
14471;DHT22;7321;50.802;4.336;2023-05-15T15:37:29;13.70;99.90
14471;DHT22;7321;50.802;4.336;2023-05-15T15:39:57;13.90;99.90
14471;DHT22;7321;50.802;4.336;2023-05-15T15:42:23;14.00;99.90
14471;DHT22;7321;50.802;4.336;2023-05-15T15:44:49;13.90;99.90
14471;DHT22;7321;50.802;4.336;2023-05-15T15:47:15;13.90;99.90
14471;DHT22;7321;50.802;4.336;2023-05-15T15:49:41;14.00;99.90
14471;DHT22;7321;50.802;4.336;2023-05-15T15:52:08;14.10;99.90
14471;DHT22;7321;50.802;4.336;2023-05-15T15:54:37;13.90;99.90
14471;DHT22;7321;50.802;4.336;2023-05-15T15:57:03;13.90;99.90
14471;DHT22;7321;50.802;4.336;2023-05-15T15:59:29;13.70;99.90
14471;DHT22;7321;50.802;4.336;2023-05-15T16:01:55;13.50;99.90
14471;DHT22;7321;50.802;4.336;2023-05-15T16:04:21;13.50;99.90
14471;DHT22;7321;50.802;4.336;2023-05-15T16:06:47;13.50;99.90
14471;DHT22;7321;50.802;4.336;2023-05-15T16:09:13;13.50;99.90